Pagrindinis puslapis
METAR-TAF:

METAR-TAF

Oro uostai :

Sendajus, Japonija

platuma: 38-08N, ilguma: 140-55E, Aukštis: 1 m

Dabartinis oras

Ataskaita buvo paskelbta 47 minutes, ne 12:00 UTC
Vėjas 3 kt iš Šiaurės Vakarų
Temperatūra 4°C
Drėgmė 56%
Slėgis 1025 hPa
Matomumas 10 km arba daugiau
Mažai debesys ne aukštis 2000 ft
Su prošvaistėmis

METAR: RJSS 131200Z 31003KT 9999 FEW020 BKN/// 04/M04 Q1025

Laikas: 21:47 (12:47 UTC)

Prognozė

Ataskaita buvo paskelbta 1 valandą ir 42 minutes, ne 11:05 UTC
Prognozė galioja nuo 13 metu 12 UTC su 14 metu 18 UTC
Vėjas 4 kt iš Vakarų/Pietvakarių
Matomumas 10 km arba daugiau
Mažai debesys ne aukštis 3000 ft
Tapsmas
nuo 14 metu 06 UTC su 14 metu 09 UTC
Vėjas 15 kt iš Vakarų/Šiaurės Vakarų

TAF: RJSS 131105Z 1312/1418 24004KT 9999 FEW030 BECMG 1406/1409 30015KT

Orai ataskaitas ir orų prognozės (METAR, TAF).

turimą stotys yra geltonos ir raudonos taškus žemėlapyje.

Perkelti pele per norėdami pamatyti stoties vardą.

Tada spustelėkite, norėdami matyti oro stebėjimo ir prognozės.

Norėdami pakeisti žemėlapį: spustelėkite ant žalios mygtukų su juodo kryžiaus žemyn,; žalią mygtuką su brūkšneliu, jei norite nutolinti; arba žalių rodyklių gretimoms žemėlapius.


METAR-TAF: